createdAt,value
2018-05-14T00:01:42.498Z,34.03
2018-05-14T00:04:08.779Z,34.24
2018-05-14T00:06:35.035Z,34.39
2018-05-14T00:09:01.286Z,34.29
2018-05-14T00:11:27.552Z,34.10
2018-05-14T00:13:53.802Z,34.29
2018-05-14T00:16:20.063Z,34.55
2018-05-14T00:18:46.299Z,34.33
2018-05-14T00:21:12.543Z,34.34
2018-05-14T00:23:38.818Z,34.22
2018-05-14T00:26:05.083Z,34.18
2018-05-14T00:28:31.473Z,34.37
2018-05-14T00:30:57.738Z,34.19
2018-05-14T00:33:23.993Z,34.20
2018-05-14T00:35:50.270Z,34.04
2018-05-14T00:38:16.508Z,34.00
2018-05-14T00:40:42.778Z,34.26
2018-05-14T00:43:09.084Z,34.24
2018-05-14T00:45:35.351Z,34.06
2018-05-14T00:48:01.636Z,34.35
2018-05-14T00:50:27.871Z,34.35
2018-05-14T00:52:54.143Z,34.44
2018-05-14T00:55:20.415Z,34.67
2018-05-14T00:57:46.678Z,34.42
2018-05-14T01:00:12.991Z,34.67
2018-05-14T01:02:39.263Z,34.46
2018-05-14T01:05:05.548Z,34.34
2018-05-14T01:07:31.888Z,34.68
2018-05-14T01:09:58.094Z,34.43
2018-05-14T01:12:24.405Z,34.99
2018-05-14T01:14:50.666Z,34.96
2018-05-14T01:17:16.939Z,34.61
2018-05-14T01:19:43.194Z,35.13
2018-05-14T01:22:09.445Z,35.08
2018-05-14T01:24:35.687Z,35.27
2018-05-14T01:27:01.943Z,35.35
2018-05-14T01:29:28.187Z,35.55
2018-05-14T01:31:54.446Z,35.61
2018-05-14T01:34:20.719Z,36.03
2018-05-14T01:36:47.019Z,36.09
2018-05-14T01:39:13.299Z,36.07
2018-05-14T01:41:39.550Z,35.70
2018-05-14T01:44:05.831Z,35.92
2018-05-14T01:46:32.067Z,36.27
2018-05-14T01:48:58.370Z,36.62
2018-05-14T01:51:24.631Z,36.84
2018-05-14T01:53:50.891Z,36.45
2018-05-14T01:56:17.146Z,36.50
2018-05-14T01:58:43.432Z,36.88
2018-05-14T02:01:09.696Z,37.05
2018-05-14T02:03:36.016Z,36.99
2018-05-14T02:06:02.263Z,37.37
2018-05-14T02:08:28.515Z,37.34
2018-05-14T02:10:54.758Z,38.13
2018-05-14T02:13:21.026Z,37.96
2018-05-14T02:15:47.365Z,38.03
2018-05-14T02:18:13.688Z,38.09
2018-05-14T02:20:39.987Z,38.33
2018-05-14T02:23:06.220Z,38.36
2018-05-14T02:25:32.476Z,38.63
2018-05-14T02:27:58.723Z,39.17
2018-05-14T02:30:24.991Z,39.27
2018-05-14T02:32:51.255Z,39.66
2018-05-14T02:35:17.491Z,40.01
2018-05-14T02:37:43.749Z,39.98
2018-05-14T02:40:10.034Z,39.71
2018-05-14T02:42:36.314Z,39.80
2018-05-14T02:45:02.599Z,39.88
2018-05-14T02:47:28.830Z,39.76
2018-05-14T02:49:55.116Z,40.12
2018-05-14T02:52:21.399Z,39.71
2018-05-14T02:54:47.715Z,39.92
2018-05-14T02:57:14.005Z,40.07
2018-05-14T02:59:40.283Z,39.75
2018-05-14T03:02:06.630Z,39.92
2018-05-14T03:04:32.859Z,39.96
2018-05-14T03:06:59.179Z,40.06
2018-05-14T03:09:25.409Z,40.33
2018-05-14T03:11:51.763Z,39.78
2018-05-14T03:14:18.024Z,40.50
2018-05-14T03:16:44.285Z,41.08
2018-05-14T03:19:10.543Z,41.39
2018-05-14T03:21:36.782Z,41.50
2018-05-14T03:24:03.108Z,41.36
2018-05-14T03:26:29.376Z,41.40
2018-05-14T03:28:55.631Z,41.34
2018-05-14T03:31:21.895Z,41.33
2018-05-14T03:33:48.252Z,41.05
2018-05-14T03:36:14.494Z,41.13
2018-05-14T03:38:40.778Z,41.06
2018-05-14T03:41:07.007Z,41.34
2018-05-14T03:43:33.262Z,41.38
2018-05-14T03:45:59.500Z,41.48
2018-05-14T03:48:25.762Z,41.57
2018-05-14T03:50:52.045Z,41.96
2018-05-14T03:53:18.277Z,41.88
2018-05-14T03:55:44.543Z,41.97
2018-05-14T03:58:22.967Z,42.31
2018-05-14T04:01:01.497Z,42.30
2018-05-14T04:03:40.015Z,42.26
2018-05-14T04:06:18.537Z,42.45
2018-05-14T04:08:44.762Z,42.41
2018-05-14T04:11:11.011Z,42.29
2018-05-14T04:13:37.310Z,42.18
2018-05-14T04:16:03.539Z,42.51
2018-05-14T04:18:29.787Z,42.42
2018-05-14T04:20:56.137Z,42.38
2018-05-14T04:23:22.434Z,42.29
2018-05-14T04:25:48.707Z,42.36
2018-05-14T04:28:14.983Z,42.58
2018-05-14T04:30:41.240Z,42.60
2018-05-14T04:33:07.477Z,42.61
2018-05-14T04:35:33.735Z,42.57
2018-05-14T04:37:59.973Z,42.52
2018-05-14T04:40:26.215Z,42.12
2018-05-14T04:42:52.455Z,42.23
2018-05-14T04:45:18.706Z,42.31
2018-05-14T04:47:44.943Z,42.20
2018-05-14T04:50:11.190Z,41.89
2018-05-14T04:52:37.443Z,42.18
2018-05-14T04:55:03.703Z,42.15
2018-05-14T04:57:29.962Z,41.91
2018-05-14T04:59:56.215Z,41.74
2018-05-14T05:02:22.465Z,41.25
2018-05-14T05:04:48.728Z,42.26
2018-05-14T05:07:15.027Z,42.09
2018-05-14T05:09:41.254Z,41.87
2018-05-14T05:12:07.590Z,41.42
2018-05-14T05:14:33.833Z,41.26
2018-05-14T05:17:00.165Z,40.64
2018-05-14T05:19:26.394Z,40.50
2018-05-14T05:21:52.679Z,40.32
2018-05-14T05:24:18.930Z,40.36
2018-05-14T05:26:45.162Z,40.41
2018-05-14T05:29:11.414Z,39.95
2018-05-14T05:31:37.687Z,40.01
2018-05-14T05:34:03.923Z,39.98
2018-05-14T05:36:30.171Z,39.65
2018-05-14T05:38:56.401Z,39.47
2018-05-14T05:41:22.647Z,39.01
2018-05-14T05:43:48.875Z,39.07
2018-05-14T05:46:15.186Z,39.02
2018-05-14T05:48:41.440Z,39.16
2018-05-14T05:51:07.726Z,39.34
2018-05-14T05:53:33.961Z,38.89
2018-05-14T05:56:00.190Z,38.97
2018-05-14T05:58:26.439Z,39.41
2018-05-14T06:00:52.685Z,38.68
2018-05-14T06:03:18.951Z,38.40
2018-05-14T06:05:45.206Z,38.57
2018-05-14T06:08:11.468Z,38.42
2018-05-14T06:10:37.762Z,38.61
2018-05-14T06:13:04.018Z,38.02
2018-05-14T06:15:30.266Z,38.49
2018-05-14T06:17:56.507Z,37.42
2018-05-14T06:20:22.787Z,37.37
2018-05-14T06:22:49.015Z,38.41
2018-05-14T06:25:15.274Z,37.88
2018-05-14T06:27:41.546Z,37.65
2018-05-14T06:30:07.833Z,37.05
2018-05-14T06:32:34.135Z,35.38
2018-05-14T06:35:00.450Z,36.30
2018-05-14T06:37:26.722Z,35.95
2018-05-14T06:39:53.034Z,36.16
2018-05-14T06:42:19.375Z,36.71
2018-05-14T06:44:45.712Z,36.76
2018-05-14T06:47:11.986Z,36.65
2018-05-14T06:49:38.258Z,36.11
2018-05-14T06:52:04.535Z,35.99
2018-05-14T06:54:30.829Z,36.13
2018-05-14T06:56:57.090Z,36.22
2018-05-14T06:59:23.362Z,35.98
2018-05-14T07:01:49.603Z,35.85
2018-05-14T07:04:15.855Z,35.43
2018-05-14T07:06:42.100Z,35.30
2018-05-14T07:09:08.363Z,34.18
2018-05-14T07:11:34.739Z,34.54
2018-05-14T07:14:00.955Z,34.23
2018-05-14T07:16:27.175Z,34.12
2018-05-14T07:18:53.756Z,33.32
2018-05-14T07:21:20.011Z,32.57
2018-05-14T07:23:46.246Z,31.93
2018-05-14T07:26:12.514Z,31.84
2018-05-14T07:28:38.735Z,32.07
2018-05-14T07:31:04.995Z,31.93
2018-05-14T07:33:31.241Z,32.14
2018-05-14T07:35:57.514Z,30.61
2018-05-14T07:38:23.768Z,29.81
2018-05-14T07:40:50.179Z,28.96
2018-05-14T07:43:16.310Z,28.54
2018-05-14T07:45:42.542Z,29.33
2018-05-14T07:48:08.873Z,28.74
2018-05-14T07:50:35.108Z,28.09
2018-05-14T07:53:01.355Z,27.54
2018-05-14T07:55:27.610Z,27.27
2018-05-14T07:57:53.945Z,26.96
2018-05-14T08:00:20.246Z,27.36
2018-05-14T08:02:46.467Z,26.94
2018-05-14T08:05:12.732Z,26.46
2018-05-14T08:07:38.975Z,26.52
2018-05-14T08:10:05.233Z,25.76
2018-05-14T08:12:31.451Z,26.26
2018-05-14T08:14:57.727Z,25.95
2018-05-14T08:17:23.966Z,25.55
2018-05-14T08:19:50.222Z,25.07
2018-05-14T08:22:16.463Z,25.12
2018-05-14T08:24:42.735Z,25.09
2018-05-14T08:27:09.010Z,24.58
2018-05-14T08:29:35.274Z,24.83
2018-05-14T08:32:01.574Z,24.37
2018-05-14T08:34:27.810Z,23.08
2018-05-14T08:36:54.066Z,22.19
2018-05-14T08:39:20.362Z,22.22
2018-05-14T08:41:46.635Z,21.70
2018-05-14T08:44:12.915Z,21.17
2018-05-14T08:46:39.172Z,20.72
2018-05-14T08:49:05.437Z,20.69
2018-05-14T08:51:31.672Z,20.16
2018-05-14T08:53:57.931Z,19.98
2018-05-14T08:56:24.193Z,20.01
2018-05-14T08:58:50.462Z,19.53
2018-05-14T09:01:16.708Z,20.01
2018-05-14T09:03:43.027Z,19.17
2018-05-14T09:06:09.295Z,18.52
2018-05-14T09:08:35.547Z,18.78
2018-05-14T09:11:01.815Z,19.23
2018-05-14T09:13:28.043Z,18.12
2018-05-14T09:15:54.306Z,18.70
2018-05-14T09:18:20.539Z,18.39
2018-05-14T09:20:46.800Z,18.21
2018-05-14T09:23:13.028Z,17.82
2018-05-14T09:25:39.317Z,18.35
2018-05-14T09:28:05.561Z,17.74
2018-05-14T09:30:31.830Z,17.96
2018-05-14T09:32:58.091Z,17.10
2018-05-14T09:35:24.315Z,17.14
2018-05-14T09:37:50.591Z,17.04
2018-05-14T09:40:16.835Z,16.64
2018-05-14T09:42:43.105Z,17.07
2018-05-14T09:45:09.390Z,17.39
2018-05-14T09:47:35.674Z,16.37
2018-05-14T09:50:01.947Z,16.34
2018-05-14T09:52:28.202Z,16.80
2018-05-14T09:54:54.458Z,17.53
2018-05-14T09:57:20.691Z,17.47
2018-05-14T09:59:47.002Z,17.57
2018-05-14T10:02:13.267Z,17.69
2018-05-14T10:04:39.638Z,18.18
2018-05-14T10:07:05.881Z,17.11
2018-05-14T10:09:32.152Z,18.34
2018-05-14T10:11:58.418Z,17.74
2018-05-14T10:14:24.658Z,17.76
2018-05-14T10:16:50.919Z,17.95
2018-05-14T10:19:17.161Z,18.69
2018-05-14T10:21:43.414Z,18.78
2018-05-14T10:24:09.671Z,18.29
2018-05-14T10:26:35.943Z,18.21
2018-05-14T10:29:02.247Z,19.18
2018-05-14T10:31:28.506Z,18.43
2018-05-14T10:33:54.807Z,18.71
2018-05-14T10:36:21.040Z,17.94
2018-05-14T10:38:47.284Z,17.83
2018-05-14T10:41:13.503Z,17.63
2018-05-14T10:43:39.791Z,17.71
2018-05-14T10:46:06.018Z,17.01
2018-05-14T10:48:32.275Z,17.45
2018-05-14T10:50:58.535Z,16.14
2018-05-14T10:53:24.812Z,16.78
2018-05-14T10:55:51.069Z,16.40
2018-05-14T10:58:17.318Z,16.22
2018-05-14T11:00:43.574Z,15.67
2018-05-14T11:03:09.826Z,15.46
2018-05-14T11:05:36.070Z,15.37
2018-05-14T11:08:02.313Z,14.83
2018-05-14T11:10:28.656Z,14.38
2018-05-14T11:12:54.841Z,14.65
2018-05-14T11:15:21.118Z,14.28
2018-05-14T11:17:47.369Z,13.98
2018-05-14T11:20:13.606Z,13.30
2018-05-14T11:22:39.898Z,12.76
2018-05-14T11:25:06.163Z,13.12
2018-05-14T11:27:32.436Z,12.32
2018-05-14T11:29:58.718Z,12.41
2018-05-14T11:32:24.991Z,12.30
2018-05-14T11:34:51.238Z,12.52
2018-05-14T11:37:17.515Z,12.81
2018-05-14T11:39:43.788Z,12.63
2018-05-14T11:42:10.067Z,12.33
2018-05-14T11:44:36.363Z,12.09
2018-05-14T11:47:02.602Z,12.41
2018-05-14T11:49:28.877Z,12.29
2018-05-14T11:51:55.118Z,11.61
2018-05-14T11:54:21.367Z,11.83
2018-05-14T11:56:47.632Z,12.17
2018-05-14T11:59:13.895Z,11.54
2018-05-14T12:01:40.134Z,11.16
2018-05-14T12:04:06.371Z,11.85
2018-05-14T12:06:32.654Z,11.03
2018-05-14T12:08:58.889Z,10.86
2018-05-14T12:11:25.171Z,10.43
2018-05-14T12:13:51.398Z,10.06
2018-05-14T12:16:17.697Z,10.66
2018-05-14T12:18:43.942Z,10.15
2018-05-14T12:21:10.196Z,10.21
2018-05-14T12:23:36.446Z,10.60
2018-05-14T12:26:02.719Z,9.79
2018-05-14T12:28:28.999Z,9.73
2018-05-14T12:30:55.238Z,10.04
2018-05-14T12:33:21.494Z,9.61
2018-05-14T12:35:47.750Z,9.60
2018-05-14T12:38:13.998Z,9.40
2018-05-14T12:40:40.248Z,9.32
2018-05-14T12:43:06.514Z,9.35
2018-05-14T12:45:32.771Z,9.82
2018-05-14T12:47:59.046Z,9.73
2018-05-14T12:50:25.301Z,8.98
2018-05-14T12:52:51.569Z,8.91
2018-05-14T12:55:17.862Z,8.72
2018-05-14T12:57:44.107Z,8.84
2018-05-14T13:00:10.410Z,8.94
2018-05-14T13:02:36.653Z,8.82
2018-05-14T13:05:02.983Z,8.59
2018-05-14T13:07:29.258Z,8.88
2018-05-14T13:09:55.519Z,8.22
2018-05-14T13:12:21.786Z,8.85
2018-05-14T13:14:48.082Z,9.03
2018-05-14T13:17:14.338Z,8.67
2018-05-14T13:19:40.579Z,9.50
2018-05-14T13:22:06.908Z,8.51
2018-05-14T13:24:33.163Z,8.97
2018-05-14T13:26:59.419Z,9.24
2018-05-14T13:29:25.687Z,9.35
2018-05-14T13:31:51.979Z,9.34
2018-05-14T13:34:18.272Z,10.16
2018-05-14T13:36:44.565Z,9.56
2018-05-14T13:39:10.843Z,9.73
2018-05-14T13:41:37.137Z,9.10
2018-05-14T13:44:03.451Z,9.32
2018-05-14T13:46:29.683Z,9.00
2018-05-14T13:48:55.915Z,8.92
2018-05-14T13:51:22.186Z,8.59
2018-05-14T13:53:48.527Z,8.70
2018-05-14T13:56:14.817Z,8.97
2018-05-14T13:58:41.094Z,8.76
2018-05-14T14:01:07.386Z,8.84
2018-05-14T14:03:33.650Z,8.26
2018-05-14T14:05:59.922Z,8.68
2018-05-14T14:08:26.153Z,8.73
2018-05-14T14:10:52.395Z,8.34
2018-05-14T14:13:18.666Z,8.37
2018-05-14T14:15:44.898Z,8.95
2018-05-14T14:18:11.170Z,8.05
2018-05-14T14:20:37.444Z,8.59
2018-05-14T14:23:03.764Z,8.58
2018-05-14T14:25:30.050Z,8.73
2018-05-14T14:27:56.322Z,8.74
2018-05-14T14:30:22.619Z,8.49
2018-05-14T14:32:48.863Z,8.86
2018-05-14T14:35:15.147Z,9.27
2018-05-14T14:37:41.402Z,8.95
2018-05-14T14:40:07.686Z,9.36
2018-05-14T14:42:33.934Z,9.75
2018-05-14T14:45:00.230Z,9.86
2018-05-14T14:47:26.486Z,9.42
2018-05-14T14:49:52.775Z,9.67
2018-05-14T14:52:19.051Z,10.01
2018-05-14T14:54:45.302Z,10.58
2018-05-14T14:57:11.573Z,10.87
2018-05-14T14:59:37.843Z,11.04
2018-05-14T15:02:04.106Z,10.98
2018-05-14T15:04:30.355Z,11.36
2018-05-14T15:06:56.672Z,12.17
2018-05-14T15:09:22.898Z,13.09
2018-05-14T15:11:49.162Z,13.49
2018-05-14T15:14:15.430Z,13.69
2018-05-14T15:16:41.687Z,14.67
2018-05-14T15:19:07.966Z,14.94
2018-05-14T15:21:34.202Z,15.49
2018-05-14T15:24:00.455Z,16.43
2018-05-14T15:26:26.710Z,16.83
2018-05-14T15:28:53.006Z,17.60
2018-05-14T15:31:19.238Z,18.67
2018-05-14T15:33:45.519Z,18.49
2018-05-14T15:36:11.779Z,18.98
2018-05-14T15:38:38.018Z,19.97
2018-05-14T15:41:05.684Z,20.25
2018-05-14T15:43:35.359Z,21.31
2018-05-14T15:46:02.839Z,21.76
2018-05-14T15:48:29.093Z,21.96
2018-05-14T15:50:55.396Z,22.42
2018-05-14T15:53:21.732Z,22.69
2018-05-14T15:55:48.116Z,22.45
2018-05-14T15:58:14.387Z,22.55
2018-05-14T16:00:40.636Z,22.71
2018-05-14T16:03:06.895Z,23.31
2018-05-14T16:05:33.184Z,23.04
2018-05-14T16:07:59.499Z,23.22
2018-05-14T16:10:25.734Z,23.30
2018-05-14T16:12:52.027Z,23.22
2018-05-14T16:15:18.417Z,23.40
2018-05-14T16:17:44.769Z,23.66
2018-05-14T16:20:11.031Z,23.97
2018-05-14T16:22:37.299Z,24.15
2018-05-14T16:25:03.654Z,23.71
2018-05-14T16:27:30.055Z,24.15
2018-05-14T16:29:56.388Z,24.33
2018-05-14T16:32:22.659Z,24.09
2018-05-14T16:34:48.951Z,24.29
2018-05-14T16:37:15.266Z,24.36
2018-05-14T16:39:41.631Z,24.48
2018-05-14T16:42:07.938Z,24.48
2018-05-14T16:44:34.172Z,24.80
2018-05-14T16:47:00.520Z,25.06
2018-05-14T16:49:26.764Z,25.28
2018-05-14T16:51:53.014Z,25.00
2018-05-14T16:54:19.243Z,25.13
2018-05-14T16:56:45.507Z,25.14
2018-05-14T16:59:11.734Z,25.48
2018-05-14T17:01:38.099Z,25.04
2018-05-14T17:04:04.376Z,25.36
2018-05-14T17:06:30.647Z,25.31
2018-05-14T17:08:56.916Z,25.40
2018-05-14T17:11:23.174Z,25.81
2018-05-14T17:13:49.503Z,25.46
2018-05-14T17:16:15.795Z,25.77
2018-05-14T17:18:42.090Z,25.92
2018-05-14T17:21:08.363Z,25.59
2018-05-14T17:23:34.979Z,25.71
2018-05-14T17:26:01.250Z,25.71
2018-05-14T17:28:27.482Z,26.09
2018-05-14T17:30:53.754Z,26.38
2018-05-14T17:33:19.999Z,26.56
2018-05-14T17:35:46.270Z,26.22
2018-05-14T17:38:13.096Z,26.53
2018-05-14T17:40:39.383Z,26.24
2018-05-14T17:43:05.643Z,26.25
2018-05-14T17:45:31.903Z,26.66
2018-05-14T17:47:58.186Z,26.33
2018-05-14T17:50:24.427Z,26.10
2018-05-14T17:52:50.723Z,26.03
2018-05-14T17:55:16.978Z,26.12
2018-05-14T17:57:43.288Z,25.99
2018-05-14T18:00:09.574Z,26.19
2018-05-14T18:02:36.047Z,26.33
2018-05-14T18:05:02.335Z,26.53
2018-05-14T18:07:28.605Z,26.50
2018-05-14T18:09:54.910Z,26.96
2018-05-14T18:12:21.194Z,26.65
2018-05-14T18:14:48.723Z,26.93
2018-05-14T18:17:15.113Z,26.84
2018-05-14T18:19:47.445Z,26.97
2018-05-14T18:22:19.753Z,27.41
2018-05-14T18:24:49.969Z,27.56
2018-05-14T18:27:22.232Z,28.07
2018-05-14T18:29:48.564Z,27.82
2018-05-14T18:32:15.872Z,27.99
2018-05-14T18:34:42.361Z,28.06
2018-05-14T18:37:08.783Z,28.31
2018-05-14T18:39:35.065Z,28.07
2018-05-14T18:42:01.386Z,28.46
2018-05-14T18:44:33.535Z,28.78
2018-05-14T18:46:59.827Z,29.12
2018-05-14T18:49:26.080Z,29.20
2018-05-14T18:51:52.388Z,29.19
2018-05-14T18:54:18.663Z,29.28
2018-05-14T18:56:44.956Z,29.35
2018-05-14T18:59:11.235Z,29.65
2018-05-14T19:01:37.505Z,29.64
2018-05-14T19:04:03.819Z,29.73
2018-05-14T19:06:30.100Z,29.93
2018-05-14T19:08:56.410Z,30.05
2018-05-14T19:11:28.794Z,30.24
2018-05-14T19:13:55.031Z,30.41
2018-05-14T19:16:27.399Z,30.45
2018-05-14T19:18:53.707Z,30.28
2018-05-14T19:21:19.998Z,30.37
2018-05-14T19:23:52.354Z,30.71
2018-05-14T19:26:18.630Z,30.57
2018-05-14T19:28:50.902Z,30.72
2018-05-14T19:31:17.143Z,30.68
2018-05-14T19:33:49.381Z,30.95
2018-05-14T19:36:15.634Z,30.95
2018-05-14T19:38:41.907Z,31.14
2018-05-14T19:41:08.155Z,30.97
2018-05-14T19:43:34.442Z,31.09
2018-05-14T19:46:00.746Z,31.37
2018-05-14T19:48:27.006Z,31.58
2018-05-14T19:50:53.305Z,31.44
2018-05-14T19:53:19.542Z,31.59
2018-05-14T19:55:45.820Z,31.65
2018-05-14T19:58:12.092Z,31.81
2018-05-14T20:00:38.368Z,31.73
2018-05-14T20:03:04.630Z,31.71
2018-05-14T20:05:31.120Z,31.83
2018-05-14T20:07:57.362Z,31.66
2018-05-14T20:10:23.752Z,31.83
2018-05-14T20:12:50.058Z,31.74
2018-05-14T20:15:16.408Z,31.84
2018-05-14T20:17:42.662Z,31.98
2018-05-14T20:20:09.034Z,32.11
2018-05-14T20:22:35.218Z,32.09
2018-05-14T20:25:01.500Z,32.39
2018-05-14T20:27:27.774Z,32.77
2018-05-14T20:29:54.087Z,32.76
2018-05-14T20:32:20.334Z,32.76
2018-05-14T20:34:46.680Z,32.74
2018-05-14T20:37:12.969Z,32.67
2018-05-14T20:39:39.218Z,32.79
2018-05-14T20:42:05.509Z,32.85
2018-05-14T20:44:31.755Z,32.90
2018-05-14T20:46:58.037Z,32.94
2018-05-14T20:49:24.271Z,33.12
2018-05-14T20:51:50.567Z,33.09
2018-05-14T20:54:16.866Z,33.50
2018-05-14T20:56:43.140Z,33.40
2018-05-14T20:59:09.383Z,33.45
2018-05-14T21:01:35.763Z,33.82
2018-05-14T21:04:02.063Z,33.76
2018-05-14T21:06:28.303Z,33.75
2018-05-14T21:08:54.582Z,33.96
2018-05-14T21:11:20.850Z,33.96
2018-05-14T21:13:47.114Z,34.25
2018-05-14T21:16:13.360Z,34.31
2018-05-14T21:18:39.620Z,34.36
2018-05-14T21:21:05.944Z,34.57
2018-05-14T21:23:32.259Z,34.46
2018-05-14T21:25:58.591Z,34.40
2018-05-14T21:28:24.854Z,34.15
2018-05-14T21:30:51.122Z,34.45
2018-05-14T21:33:17.370Z,34.50
2018-05-14T21:35:43.633Z,34.46
2018-05-14T21:38:09.921Z,34.58
2018-05-14T21:40:36.355Z,34.62
2018-05-14T21:43:02.636Z,34.45
2018-05-14T21:45:28.843Z,34.72
2018-05-14T21:47:55.107Z,34.41
2018-05-14T21:50:21.428Z,34.50
2018-05-14T21:52:47.659Z,34.41
2018-05-14T21:55:13.899Z,34.33
2018-05-14T21:57:40.190Z,34.39
2018-05-14T22:00:06.502Z,34.30
2018-05-14T22:02:32.744Z,34.06
2018-05-14T22:04:59.042Z,34.36
2018-05-14T22:07:25.332Z,34.16
2018-05-14T22:09:51.639Z,34.33
2018-05-14T22:12:17.931Z,34.46
2018-05-14T22:14:44.223Z,34.40
2018-05-14T22:17:10.453Z,34.42
2018-05-14T22:19:36.695Z,34.72
2018-05-14T22:22:03.301Z,34.71
2018-05-14T22:24:29.941Z,34.98
2018-05-14T22:26:56.546Z,34.82
2018-05-14T22:29:22.788Z,35.13
2018-05-14T22:31:49.047Z,35.08
2018-05-14T22:34:15.295Z,35.21
2018-05-14T22:36:41.558Z,35.38
2018-05-14T22:39:07.787Z,35.63
2018-05-14T22:41:34.034Z,35.74
2018-05-14T22:44:00.281Z,35.70
2018-05-14T22:46:26.546Z,35.77
2018-05-14T22:48:52.798Z,36.02
2018-05-14T22:51:19.052Z,36.02
2018-05-14T22:53:45.371Z,36.25
2018-05-14T22:56:11.643Z,36.19
2018-05-14T22:58:38.019Z,36.42
2018-05-14T23:01:04.274Z,36.56
2018-05-14T23:03:30.522Z,36.35
2018-05-14T23:05:56.790Z,36.31
2018-05-14T23:08:23.034Z,36.56
2018-05-14T23:10:49.338Z,36.92
2018-05-14T23:13:15.571Z,36.78
2018-05-14T23:15:41.875Z,36.92
2018-05-14T23:18:08.119Z,36.96
2018-05-14T23:20:34.394Z,36.97
2018-05-14T23:23:00.650Z,36.99
2018-05-14T23:25:28.030Z,37.16
2018-05-14T23:27:54.323Z,37.13
2018-05-14T23:30:20.550Z,37.23
2018-05-14T23:32:46.922Z,37.21
2018-05-14T23:35:13.170Z,37.34
2018-05-14T23:37:39.475Z,37.31
2018-05-14T23:40:05.723Z,37.14
2018-05-14T23:42:32.010Z,37.37
2018-05-14T23:44:58.243Z,37.41
2018-05-14T23:47:24.491Z,37.54
2018-05-14T23:49:50.741Z,37.73
2018-05-14T23:52:17.052Z,37.72
2018-05-14T23:54:43.301Z,37.35
2018-05-14T23:57:09.522Z,37.85
2018-05-14T23:59:36.040Z,38.06
